Time;durP1;ratioP1;P1;durP2;ratioP2;P2;SDS_P1;SDS_P2;PMS_P1;PMS_P2;Temp;Humidity;BMP_temperature;BMP_pressure;BME280_temperature;BME280_humidity;BME280_pressure;Samples;Min_cycle;Max_cycle;Signal;HPM_P1;HPM_P2
2023/09/20 00:03:06;;;;;;;2.50;1.15;;;;;;;;;;10378246;22;20014;-71
2023/09/20 00:07:07;;;;;;;1.47;1.00;;;;;;;;;;10383048;22;20076;-71
2023/09/20 00:11:08;;;;;;;2.63;1.17;;;;;;;;;;10382220;22;20009;-72
2023/09/20 00:15:09;;;;;;;2.00;1.10;;;;;;;;;;10381981;22;19999;-71
2023/09/20 00:19:09;;;;;;;1.53;1.00;;;;;;;;;;10382906;22;20098;-70
2023/09/20 00:23:09;;;;;;;2.10;1.10;;;;;;;;;;10384457;22;20257;-70
2023/09/20 00:27:09;;;;;;;3.00;1.20;;;;;;;;;;10357403;22;20090;-70
2023/09/20 00:31:09;;;;;;;1.90;1.10;;;;;;;;;;10376664;22;20026;-71
2023/09/20 00:35:11;;;;;;;2.60;1.40;;;;;;;;;;10381904;22;20006;-71
2023/09/20 00:39:11;;;;;;;1.20;0.93;;;;;;;;;;10380739;22;20325;-70
2023/09/20 00:43:11;;;;;;;2.03;1.03;;;;;;;;;;10378801;22;20077;-71
2023/09/20 00:47:12;;;;;;;1.58;1.20;;;;;;;;;;10382182;22;20011;-71
2023/09/20 00:51:12;;;;;;;2.53;1.10;;;;;;;;;;10382166;22;20007;-71
2023/09/20 00:55:15;;;;;;;2.40;1.17;;;;;;;;;;10385193;22;19999;-70
2023/09/20 00:59:17;;;;;;;2.40;1.20;;;;;;;;;;10383813;22;19996;-70
2023/09/20 01:03:17;;;;;;;2.13;1.10;;;;;;;;;;10383050;22;20118;-71
2023/09/20 01:07:18;;;;;;;1.60;1.10;;;;;;;;;;10380060;22;20069;-70
2023/09/20 01:11:18;;;;;;;1.98;1.00;;;;;;;;;;10381038;22;20003;-70
2023/09/20 01:15:20;;;;;;;2.20;0.98;;;;;;;;;;10374450;22;20088;-71
2023/09/20 01:19:20;;;;;;;3.42;1.10;;;;;;;;;;10378916;22;20022;-70
2023/09/20 01:23:20;;;;;;;3.80;1.20;;;;;;;;;;10383389;22;20579;-70
2023/09/20 01:27:21;;;;;;;1.85;1.30;;;;;;;;;;10384646;22;19999;-71
2023/09/20 01:31:21;;;;;;;2.28;1.20;;;;;;;;;;10381009;22;20023;-71
2023/09/20 01:35:23;;;;;;;3.20;1.35;;;;;;;;;;10382521;22;19999;-71
2023/09/20 01:39:24;;;;;;;1.80;1.50;;;;;;;;;;10372414;22;19995;-71
2023/09/20 01:43:24;;;;;;;2.33;1.23;;;;;;;;;;10374190;22;20853;-70
2023/09/20 01:47:26;;;;;;;2.58;1.10;;;;;;;;;;10372537;22;20011;-71
2023/09/20 01:51:27;;;;;;;2.67;1.20;;;;;;;;;;10372378;22;20003;-71
2023/09/20 01:55:28;;;;;;;2.45;1.35;;;;;;;;;;10373734;22;20019;-70
2023/09/20 01:59:28;;;;;;;2.33;1.15;;;;;;;;;;10373835;22;20007;-71
2023/09/20 02:03:31;;;;;;;1.65;1.20;;;;;;;;;;10374622;22;20016;-71
2023/09/20 02:07:32;;;;;;;2.22;1.13;;;;;;;;;;10375357;22;20065;-71
2023/09/20 02:11:32;;;;;;;1.92;1.10;;;;;;;;;;10373501;22;20313;-71
2023/09/20 02:15:36;;;;;;;3.03;1.40;;;;;;;;;;10375886;22;20711;-71
2023/09/20 02:19:36;;;;;;;1.83;1.20;;;;;;;;;;10374029;22;20003;-71
2023/09/20 02:23:36;;;;;;;2.45;1.23;;;;;;;;;;10373210;22;20011;-71
2023/09/20 02:27:40;;;;;;;1.77;1.20;;;;;;;;;;10375483;22;20017;-71
2023/09/20 02:31:41;;;;;;;1.13;1.02;;;;;;;;;;10373681;22;20031;-71
2023/09/20 02:35:41;;;;;;;1.92;1.10;;;;;;;;;;10373223;22;20144;-71
2023/09/20 02:39:41;;;;;;;3.45;1.30;;;;;;;;;;10371105;22;20706;-71
2023/09/20 02:43:41;;;;;;;1.87;1.10;;;;;;;;;;10375198;22;20075;-71
2023/09/20 02:47:43;;;;;;;4.65;1.25;;;;;;;;;;10372491;22;20022;-71
2023/09/20 02:51:43;;;;;;;2.85;1.15;;;;;;;;;;10374156;22;20384;-71
2023/09/20 02:55:44;;;;;;;1.95;1.08;;;;;;;;;;10374212;22;20003;-71
2023/09/20 02:59:46;;;;;;;3.10;1.25;;;;;;;;;;10378754;22;20007;-71
2023/09/20 03:03:46;;;;;;;2.15;1.23;;;;;;;;;;10375621;22;20026;-71
2023/09/20 03:07:47;;;;;;;1.50;1.20;;;;;;;;;;10379102;22;20777;-71
2023/09/20 03:11:48;;;;;;;1.80;1.30;;;;;;;;;;10378789;22;20003;-71
2023/09/20 03:15:51;;;;;;;3.97;1.45;;;;;;;;;;10383116;22;20003;-70
2023/09/20 03:19:53;;;;;;;3.10;1.17;;;;;;;;;;10381797;22;20110;-71
2023/09/20 03:23:55;;;;;;;3.80;1.10;;;;;;;;;;10381358;22;20022;-71
2023/09/20 03:27:55;;;;;;;1.90;1.13;;;;;;;;;;10378224;22;19999;-71
2023/09/20 03:31:56;;;;;;;2.50;1.20;;;;;;;;;;10377702;22;20026;-71
2023/09/20 03:35:57;;;;;;;1.65;1.25;;;;;;;;;;10374051;22;20344;-71
2023/09/20 03:39:57;;;;;;;2.65;1.20;;;;;;;;;;10378688;22;20793;-71
2023/09/20 03:43:58;;;;;;;1.98;1.30;;;;;;;;;;10377696;22;19995;-71
2023/09/20 03:47:58;;;;;;;3.13;1.27;;;;;;;;;;10377540;22;20011;-71
2023/09/20 03:51:59;;;;;;;2.27;1.17;;;;;;;;;;10378597;22;20700;-71
2023/09/20 03:55:59;;;;;;;2.83;1.40;;;;;;;;;;10377743;22;21057;-71
2023/09/20 03:59:59;;;;;;;2.95;1.20;;;;;;;;;;10378248;22;20065;-71
2023/09/20 04:04:00;;;;;;;1.67;1.15;;;;;;;;;;10376547;22;20399;-71
2023/09/20 04:08:00;;;;;;;5.68;1.27;;;;;;;;;;10377039;22;20746;-71
2023/09/20 04:12:00;;;;;;;2.22;1.10;;;;;;;;;;10376481;22;20429;-71
2023/09/20 04:16:05;;;;;;;1.30;1.00;;;;;;;;;;10378357;22;20149;-71
2023/09/20 04:20:07;;;;;;;2.55;1.25;;;;;;;;;;10378066;22;19999;-70
2023/09/20 04:24:07;;;;;;;1.98;1.10;;;;;;;;;;10380078;22;20873;-71
2023/09/20 04:28:09;;;;;;;1.33;1.00;;;;;;;;;;10377374;22;20069;-71
2023/09/20 04:32:09;;;;;;;3.08;1.20;;;;;;;;;;10373302;22;20023;-71
2023/09/20 04:36:10;;;;;;;2.85;1.30;;;;;;;;;;10377228;22;20049;-71
2023/09/20 04:40:10;;;;;;;4.43;1.23;;;;;;;;;;10377991;22;20003;-71
2023/09/20 04:44:10;;;;;;;2.38;1.45;;;;;;;;;;10376870;22;20031;-71
2023/09/20 04:48:11;;;;;;;2.83;1.30;;;;;;;;;;10379373;22;20082;-70
2023/09/20 04:52:11;;;;;;;2.08;1.00;;;;;;;;;;10378128;22;20059;-71
2023/09/20 04:56:11;;;;;;;1.90;1.00;;;;;;;;;;10379597;22;20031;-74
2023/09/20 05:00:14;;;;;;;2.35;1.25;;;;;;;;;;10380495;22;20110;-74
2023/09/20 05:04:15;;;;;;;3.22;1.25;;;;;;;;;;10382148;22;20021;-74
2023/09/20 05:08:15;;;;;;;1.90;1.00;;;;;;;;;;10383391;22;20773;-73
2023/09/20 05:12:17;;;;;;;4.22;1.30;;;;;;;;;;10379988;22;20497;-74
2023/09/20 05:16:17;;;;;;;3.83;1.02;;;;;;;;;;10380627;22;20018;-74
2023/09/20 05:20:17;;;;;;;1.40;1.20;;;;;;;;;;10379565;22;20105;-74
2023/09/20 05:24:17;;;;;;;2.08;1.30;;;;;;;;;;10380142;22;20011;-74
2023/09/20 05:28:18;;;;;;;2.50;1.20;;;;;;;;;;10381755;22;20014;-73
2023/09/20 05:32:18;;;;;;;1.80;1.10;;;;;;;;;;10378744;22;20011;-74
2023/09/20 05:36:25;;;;;;;3.90;1.13;;;;;;;;;;10380443;22;20341;-74
2023/09/20 05:40:28;;;;;;;2.53;1.40;;;;;;;;;;10377840;22;20010;-72
2023/09/20 05:44:30;;;;;;;2.25;1.30;;;;;;;;;;10378323;22;20007;-73
2023/09/20 05:48:30;;;;;;;6.55;1.48;;;;;;;;;;10380053;22;20322;-73
2023/09/20 05:52:31;;;;;;;1.95;1.10;;;;;;;;;;10379927;22;20456;-73
2023/09/20 05:56:32;;;;;;;4.00;1.40;;;;;;;;;;10381161;22;19991;-73
2023/09/20 06:00:33;;;;;;;2.08;1.10;;;;;;;;;;10379159;22;20019;-73
2023/09/20 06:04:35;;;;;;;1.42;1.30;;;;;;;;;;10380439;22;20070;-73
2023/09/20 06:08:36;;;;;;;2.97;1.30;;;;;;;;;;10380753;22;20000;-73
2023/09/20 06:12:36;;;;;;;1.67;1.20;;;;;;;;;;10380939;22;20006;-73
2023/09/20 06:16:37;;;;;;;2.00;1.30;;;;;;;;;;10382351;22;20030;-73
2023/09/20 06:20:39;;;;;;;2.63;1.27;;;;;;;;;;10383344;22;20497;-73
2023/09/20 06:24:43;;;;;;;2.83;1.20;;;;;;;;;;10382216;22;20019;-74
2023/09/20 06:28:44;;;;;;;1.20;1.10;;;;;;;;;;10385480;22;20031;-74
2023/09/20 06:32:44;;;;;;;1.83;1.10;;;;;;;;;;10379762;22;20699;-73
2023/09/20 06:36:44;;;;;;;1.40;1.20;;;;;;;;;;10381912;22;20034;-73
2023/09/20 06:40:55;;;;;;;3.05;1.20;;;;;;;;;;10380882;22;20065;-73
2023/09/20 06:44:55;;;;;;;3.13;1.25;;;;;;;;;;10383056;22;20008;-73
2023/09/20 06:48:57;;;;;;;1.83;1.23;;;;;;;;;;10384462;22;20019;-73
2023/09/20 06:52:59;;;;;;;5.82;1.27;;;;;;;;;;10382348;22;20441;-73
2023/09/20 06:57:03;;;;;;;3.03;1.20;;;;;;;;;;10380666;22;20061;-73
2023/09/20 07:01:04;;;;;;;;;;;;;;;;;;10380134;22;20098;-73
2023/09/20 07:05:05;;;;;;;2.08;1.00;;;;;;;;;;10381311;22;19906;-73
2023/09/20 07:09:05;;;;;;;3.67;1.15;;;;;;;;;;10379846;22;20053;-73
2023/09/20 07:13:05;;;;;;;1.95;1.17;;;;;;;;;;10381023;22;20670;-73
2023/09/20 07:17:07;;;;;;;2.22;1.20;;;;;;;;;;10379147;22;20118;-73
2023/09/20 07:21:07;;;;;;;2.65;1.20;;;;;;;;;;10378664;22;20004;-73
2023/09/20 07:25:09;;;;;;;1.80;1.35;;;;;;;;;;10382380;22;20463;-73
2023/09/20 07:29:13;;;;;;;1.73;1.10;;;;;;;;;;10381522;22;20014;-73
2023/09/20 07:33:23;;;;;;;1.83;1.10;;;;;;;;;;10381696;22;20011;-74
2023/09/20 07:37:25;;;;;;;3.05;1.30;;;;;;;;;;10380852;22;20091;-73
2023/09/20 07:41:25;;;;;;;4.32;1.45;;;;;;;;;;10381067;22;20335;-73
2023/09/20 07:45:27;;;;;;;1.95;1.23;;;;;;;;;;10381670;22;20102;-73
2023/09/20 07:49:27;;;;;;;2.33;1.27;;;;;;;;;;10383941;22;20006;-73
2023/09/20 07:53:28;;;;;;;3.75;1.50;;;;;;;;;;10377738;22;20004;-73
2023/09/20 07:57:28;;;;;;;2.00;1.35;;;;;;;;;;10379296;22;20015;-73
2023/09/20 08:01:29;;;;;;;1.65;1.20;;;;;;;;;;10377535;22;20015;-74
2023/09/20 08:05:30;;;;;;;3.95;1.45;;;;;;;;;;10381119;22;20003;-74
2023/09/20 08:09:30;;;;;;;4.20;1.30;;;;;;;;;;10377723;22;20010;-73
2023/09/20 08:13:30;;;;;;;2.42;1.15;;;;;;;;;;10381972;22;19995;-73
2023/09/20 08:21:51;;;;;;;2.63;1.30;;;;;;;;;;10381186;22;20033;-73
2023/09/20 09:00:35;;;;;;;6.10;1.25;;;;;;;;;;10379347;22;20018;-74
2023/09/20 09:04:36;;;;;;;2.05;1.10;;;;;;;;;;10379210;22;20030;-74
2023/09/20 09:08:36;;;;;;;1.95;1.25;;;;;;;;;;10382837;22;19995;-73
2023/09/20 09:12:37;;;;;;;3.13;1.10;;;;;;;;;;10379238;22;20077;-74
2023/09/20 09:16:38;;;;;;;2.17;1.20;;;;;;;;;;10383753;22;20122;-73
2023/09/20 09:20:38;;;;;;;2.88;1.00;;;;;;;;;;10381435;22;20006;-73
2023/09/20 09:24:45;;;;;;;2.80;1.20;;;;;;;;;;10380901;22;20007;-74
2023/09/20 09:28:46;;;;;;;0.95;0.95;;;;;;;;;;10384047;22;20234;-74
2023/09/20 09:32:47;;;;;;;2.47;1.30;;;;;;;;;;10381816;22;20081;-74
2023/09/20 09:36:47;;;;;;;2.03;1.10;;;;;;;;;;10383293;22;20061;-73
2023/09/20 09:40:53;;;;;;;2.53;0.93;;;;;;;;;;10378996;22;19995;-74
2023/09/20 09:44:54;;;;;;;2.63;1.10;;;;;;;;;;10386475;22;20639;-74
2023/09/20 09:48:55;;;;;;;1.83;1.00;;;;;;;;;;10384354;22;20894;-74
2023/09/20 09:52:55;;;;;;;1.58;1.00;;;;;;;;;;10384535;22;20003;-73
2023/09/20 09:56:56;;;;;;;1.40;1.08;;;;;;;;;;10381073;22;20003;-73
2023/09/20 10:00:57;;;;;;;3.28;1.15;;;;;;;;;;10385293;22;20713;-73
2023/09/20 10:05:01;;;;;;;3.45;0.98;;;;;;;;;;10385346;22;20003;-73
2023/09/20 10:09:04;;;;;;;1.55;1.10;;;;;;;;;;10386679;22;19999;-74
2023/09/20 10:13:04;;;;;;;1.33;1.00;;;;;;;;;;10381457;22;20007;-74
2023/09/20 10:17:06;;;;;;;2.42;0.95;;;;;;;;;;10387561;22;20019;-72
2023/09/20 10:21:14;;;;;;;1.65;0.90;;;;;;;;;;10386490;22;19999;-73
2023/09/20 10:25:36;;;;;;;1.83;1.10;;;;;;;;;;10382353;22;20309;-74
2023/09/20 10:29:39;;;;;;;2.08;0.90;;;;;;;;;;10380777;22;20038;-73
2023/09/20 10:33:52;;;;;;;2.17;0.80;;;;;;;;;;10380340;22;20680;-73
2023/09/20 10:38:07;;;;;;;1.50;1.10;;;;;;;;;;10381298;22;20098;-73
2023/09/20 10:42:12;;;;;;;1.35;0.90;;;;;;;;;;10377323;22;20014;-73
2023/09/20 10:46:19;;;;;;;3.47;0.95;;;;;;;;;;10379334;22;20018;-73
2023/09/20 10:50:38;;;;;;;1.13;0.90;;;;;;;;;;10379389;22;20038;-74
2023/09/20 10:54:39;;;;;;;1.48;0.90;;;;;;;;;;10375880;22;20810;-74
2023/09/20 10:58:42;;;;;;;2.67;1.10;;;;;;;;;;10376810;22;20030;-73
2023/09/20 11:02:42;;;;;;;1.48;1.13;;;;;;;;;;10379679;22;20046;-74
2023/09/20 11:06:47;;;;;;;2.05;1.02;;;;;;;;;;10382026;22;20018;-73
2023/09/20 11:10:47;;;;;;;1.13;0.90;;;;;;;;;;10375757;22;20011;-74
2023/09/20 11:14:49;;;;;;;1.20;1.00;;;;;;;;;;10379628;22;20670;-74
2023/09/20 11:18:49;;;;;;;1.13;0.80;;;;;;;;;;10378688;22;20018;-74
2023/09/20 11:22:51;;;;;;;1.20;1.10;;;;;;;;;;10376720;22;20491;-73
2023/09/20 11:26:55;;;;;;;2.28;1.10;;;;;;;;;;10378652;22;19999;-74
2023/09/20 11:30:56;;;;;;;1.70;1.00;;;;;;;;;;10375598;22;20007;-74
2023/09/20 11:34:57;;;;;;;1.35;1.10;;;;;;;;;;10381901;22;20010;-74
2023/09/20 11:38:57;;;;;;;1.83;1.05;;;;;;;;;;10376247;22;20082;-74
2023/09/20 11:42:57;;;;;;;1.27;1.00;;;;;;;;;;10372086;22;20003;-74
2023/09/20 11:47:00;;;;;;;1.07;0.97;;;;;;;;;;10376766;22;20332;-74
2023/09/20 11:51:00;;;;;;;1.17;1.00;;;;;;;;;;10380651;22;20026;-75
2023/09/20 11:55:04;;;;;;;4.40;1.15;;;;;;;;;;10378505;22;20003;-74
2023/09/20 11:59:09;;;;;;;2.80;0.88;;;;;;;;;;10381485;22;19999;-74
2023/09/20 12:03:10;;;;;;;2.47;1.13;;;;;;;;;;10382892;22;20018;-74
2023/09/20 12:07:10;;;;;;;1.60;1.00;;;;;;;;;;10376160;22;20003;-74
2023/09/20 12:11:10;;;;;;;3.10;1.33;;;;;;;;;;10381833;22;19999;-77
2023/09/20 12:15:10;;;;;;;2.13;1.20;;;;;;;;;;10375573;22;20985;-74
2023/09/20 12:19:11;;;;;;;3.53;1.20;;;;;;;;;;10379253;22;20222;-73
2023/09/20 12:23:12;;;;;;;3.60;1.25;;;;;;;;;;10377155;22;20003;-74
2023/09/20 12:27:12;;;;;;;2.80;1.35;;;;;;;;;;10379769;22;20007;-73
2023/09/20 12:31:13;;;;;;;1.58;1.23;;;;;;;;;;10380601;22;20054;-74
2023/09/20 12:35:13;;;;;;;2.40;1.10;;;;;;;;;;10381291;22;20011;-73
2023/09/20 12:39:13;;;;;;;1.83;1.00;;;;;;;;;;10382366;22;19996;-74
2023/09/20 12:43:17;;;;;;;2.13;1.30;;;;;;;;;;10355107;22;20038;-74
2023/09/20 12:47:19;;;;;;;2.05;1.25;;;;;;;;;;10384082;22;20007;-74
2023/09/20 12:51:19;;;;;;;1.73;1.10;;;;;;;;;;10383523;22;20106;-74
2023/09/20 12:55:19;;;;;;;1.15;1.05;;;;;;;;;;10375927;22;20003;-73
2023/09/20 12:59:19;;;;;;;2.10;1.25;;;;;;;;;;10377673;22;20172;-73
2023/09/20 13:03:20;;;;;;;1.45;1.13;;;;;;;;;;10378269;22;20110;-74
2023/09/20 13:07:21;;;;;;;1.40;1.30;;;;;;;;;;10381571;22;20491;-73
2023/09/20 13:11:23;;;;;;;1.52;1.20;;;;;;;;;;10381056;22;20014;-73
2023/09/20 13:15:23;;;;;;;2.67;1.50;;;;;;;;;;10376367;22;20007;-74
2023/09/20 13:19:23;;;;;;;1.40;1.20;;;;;;;;;;10382619;22;20034;-74
2023/09/20 13:23:25;;;;;;;2.58;1.15;;;;;;;;;;10384407;22;20106;-73
2023/09/20 13:27:25;;;;;;;1.98;1.30;;;;;;;;;;10386892;22;20106;-73
2023/09/20 13:31:26;;;;;;;2.37;1.40;;;;;;;;;;10378758;22;20172;-74
2023/09/20 13:35:27;;;;;;;5.00;1.50;;;;;;;;;;10385639;22;21069;-74
2023/09/20 13:39:29;;;;;;;2.92;1.38;;;;;;;;;;10384562;22;19999;-73
2023/09/20 13:43:30;;;;;;;2.33;1.20;;;;;;;;;;10375672;22;20101;-73
2023/09/20 13:47:32;;;;;;;1.85;1.48;;;;;;;;;;10377674;22;20019;-73
2023/09/20 13:51:32;;;;;;;1.50;1.30;;;;;;;;;;10379985;22;20011;-74
2023/09/20 13:55:33;;;;;;;1.37;1.10;;;;;;;;;;10382153;22;20226;-73
2023/09/20 13:59:36;;;;;;;2.70;1.33;;;;;;;;;;10381059;22;20078;-73
2023/09/20 14:03:37;;;;;;;;;;;;;;;;;;10378589;22;20007;-73
2023/09/20 14:07:37;;;;;;;2.92;1.45;;;;;;;;;;10385630;22;19930;-73
2023/09/20 14:11:37;;;;;;;3.20;1.30;;;;;;;;;;10385902;22;20012;-73
2023/09/20 14:15:37;;;;;;;3.40;1.20;;;;;;;;;;10380730;22;20007;-72
2023/09/20 14:19:38;;;;;;;4.05;1.30;;;;;;;;;;10383974;22;20063;-74
2023/09/20 14:23:39;;;;;;;2.10;1.23;;;;;;;;;;10387093;22;20007;-74
2023/09/20 14:27:39;;;;;;;2.30;1.35;;;;;;;;;;10387054;22;20035;-74
2023/09/20 14:31:40;;;;;;;1.60;1.20;;;;;;;;;;10386550;22;20019;-74
2023/09/20 14:35:41;;;;;;;2.05;1.33;;;;;;;;;;10385208;22;19999;-74
2023/09/20 14:39:42;;;;;;;2.03;1.27;;;;;;;;;;10387439;22;20558;-74
2023/09/20 14:43:42;;;;;;;4.03;1.30;;;;;;;;;;10388947;22;20100;-73
2023/09/20 14:47:45;;;;;;;2.08;1.30;;;;;;;;;;10385017;22;20238;-74
2023/09/20 14:51:45;;;;;;;2.47;1.30;;;;;;;;;;10387933;22;20022;-74
2023/09/20 14:55:46;;;;;;;1.47;1.30;;;;;;;;;;10386654;22;20718;-74
2023/09/20 14:59:46;;;;;;;2.28;1.50;;;;;;;;;;10387584;22;20448;-74
2023/09/20 15:03:48;;;;;;;1.77;1.30;;;;;;;;;;10383506;22;20796;-74
2023/09/20 15:07:53;;;;;;;3.00;1.35;;;;;;;;;;10383113;22;20003;-74
2023/09/20 15:11:54;;;;;;;1.20;1.10;;;;;;;;;;10386245;22;20717;-74
2023/09/20 15:15:57;;;;;;;1.88;1.20;;;;;;;;;;10386926;22;20007;-74
2023/09/20 15:19:57;;;;;;;;;;;;;;;;;;10383972;22;20030;-74
2023/09/20 15:23:57;;;;;;;2.97;1.40;;;;;;;;;;10385989;22;20297;-74
2023/09/20 15:27:58;;;;;;;3.22;1.25;;;;;;;;;;10386176;22;20037;-74
2023/09/20 15:31:58;;;;;;;2.13;1.40;;;;;;;;;;10383117;22;20011;-73
2023/09/20 15:36:00;;;;;;;2.97;1.43;;;;;;;;;;10384204;22;20444;-73
2023/09/20 15:40:03;;;;;;;4.78;1.10;;;;;;;;;;10383470;22;20144;-74
2023/09/20 15:44:04;;;;;;;3.35;1.27;;;;;;;;;;10381367;22;20462;-74
2023/09/20 15:48:04;;;;;;;3.47;1.30;;;;;;;;;;10379109;22;20011;-73
2023/09/20 15:52:06;;;;;;;2.95;1.40;;;;;;;;;;10379544;22;20022;-73
2023/09/20 15:56:06;;;;;;;3.55;1.42;;;;;;;;;;10381993;22;20377;-74
2023/09/20 16:00:17;;;;;;;5.45;1.90;;;;;;;;;;10382751;22;20004;-74
2023/09/20 16:04:17;;;;;;;2.22;1.33;;;;;;;;;;10381637;22;20332;-74
2023/09/20 16:08:17;;;;;;;5.13;1.27;;;;;;;;;;10387118;22;20019;-74
2023/09/20 16:12:18;;;;;;;1.90;1.30;;;;;;;;;;10383383;22;20086;-74
2023/09/20 16:16:18;;;;;;;3.17;1.23;;;;;;;;;;10382156;22;20051;-74
2023/09/20 16:20:19;;;;;;;1.83;1.35;;;;;;;;;;10377957;22;19995;-74
2023/09/20 16:24:20;;;;;;;8.07;1.60;;;;;;;;;;10375844;22;20069;-74
2023/09/20 16:28:21;;;;;;;2.30;1.33;;;;;;;;;;10377883;22;20094;-74
2023/09/20 16:32:21;;;;;;;1.88;1.23;;;;;;;;;;10371099;22;20138;-73
2023/09/20 16:36:21;;;;;;;2.88;1.20;;;;;;;;;;10373911;22;20798;-74
2023/09/20 16:40:22;;;;;;;1.30;1.20;;;;;;;;;;10372677;22;20185;-74
2023/09/20 16:44:22;;;;;;;1.85;1.20;;;;;;;;;;10375042;22;20026;-73
2023/09/20 16:48:23;;;;;;;1.98;1.27;;;;;;;;;;10372363;22;20007;-74
2023/09/20 16:52:24;;;;;;;3.70;1.10;;;;;;;;;;10374343;22;20003;-73
2023/09/20 16:56:25;;;;;;;1.58;1.40;;;;;;;;;;10374845;22;20802;-75
2023/09/20 17:00:25;;;;;;;2.05;1.13;;;;;;;;;;10375414;22;20132;-75
2023/09/20 17:04:31;;;;;;;2.10;1.30;;;;;;;;;;10377092;22;20066;-74
2023/09/20 17:08:31;;;;;;;2.15;1.35;;;;;;;;;;10378639;22;20461;-74
2023/09/20 17:12:31;;;;;;;1.63;1.23;;;;;;;;;;10378272;22;20011;-74
2023/09/20 17:16:32;;;;;;;1.85;1.20;;;;;;;;;;10375110;22;20011;-75
2023/09/20 17:20:32;;;;;;;3.57;1.60;;;;;;;;;;10375910;22;20057;-74
2023/09/20 17:24:33;;;;;;;2.75;1.30;;;;;;;;;;10372664;22;20307;-75
2023/09/20 17:28:34;;;;;;;2.58;1.50;;;;;;;;;;10379286;22;19999;-75
2023/09/20 17:32:34;;;;;;;2.33;1.30;;;;;;;;;;10371817;22;20210;-75
2023/09/20 17:36:35;;;;;;;1.97;1.40;;;;;;;;;;10375725;22;19999;-74
2023/09/20 17:40:35;;;;;;;2.10;1.40;;;;;;;;;;10378808;22;20010;-74
2023/09/20 17:44:36;;;;;;;3.67;1.37;;;;;;;;;;10378985;22;20015;-74
2023/09/20 17:48:37;;;;;;;2.03;1.20;;;;;;;;;;10372502;22;20015;-75
2023/09/20 17:52:37;;;;;;;1.40;1.30;;;;;;;;;;10378362;22;20011;-75
2023/09/20 17:56:38;;;;;;;2.53;1.30;;;;;;;;;;10374594;22;20000;-73
2023/09/20 18:00:40;;;;;;;2.20;1.25;;;;;;;;;;10356789;22;20230;-73
2023/09/20 18:04:40;;;;;;;3.83;1.65;;;;;;;;;;10379852;22;20050;-73
2023/09/20 18:08:43;;;;;;;1.70;1.30;;;;;;;;;;10373796;22;20564;-73
2023/09/20 18:12:43;;;;;;;1.40;1.20;;;;;;;;;;10374582;22;20421;-73
2023/09/20 18:16:45;;;;;;;1.63;1.13;;;;;;;;;;10374121;22;20085;-73
2023/09/20 18:20:45;;;;;;;2.90;1.30;;;;;;;;;;10372904;22;20007;-74
2023/09/20 18:24:46;;;;;;;1.70;1.60;;;;;;;;;;10372201;22;20825;-72
2023/09/20 18:28:48;;;;;;;1.35;1.20;;;;;;;;;;10376466;22;20311;-71
2023/09/20 18:32:55;;;;;;;2.53;1.38;;;;;;;;;;10373572;22;20030;-71
2023/09/20 18:36:55;;;;;;;2.00;1.35;;;;;;;;;;10371568;22;20101;-71
2023/09/20 18:40:56;;;;;;;1.43;1.20;;;;;;;;;;10376501;22;19995;-72
2023/09/20 18:44:56;;;;;;;1.35;1.13;;;;;;;;;;10378827;22;20041;-71
2023/09/20 18:48:58;;;;;;;1.30;1.20;;;;;;;;;;10368728;22;20003;-71
2023/09/20 18:52:58;;;;;;;3.97;1.30;;;;;;;;;;10369094;22;20609;-71
2023/09/20 18:56:58;;;;;;;1.23;1.13;;;;;;;;;;10373276;22;20003;-71
2023/09/20 19:01:01;;;;;;;1.65;1.33;;;;;;;;;;10375142;22;20035;-71
2023/09/20 19:05:01;;;;;;;2.17;1.20;;;;;;;;;;10374515;22;19996;-71
2023/09/20 19:09:03;;;;;;;1.55;1.02;;;;;;;;;;10376106;22;19999;-71
2023/09/20 19:13:05;;;;;;;2.08;1.40;;;;;;;;;;10371755;22;20003;-71
2023/09/20 19:17:06;;;;;;;3.35;1.40;;;;;;;;;;10374018;22;20030;-71
2023/09/20 19:21:06;;;;;;;3.80;1.30;;;;;;;;;;10371883;22;20035;-71
2023/09/20 19:25:07;;;;;;;1.45;1.30;;;;;;;;;;10372877;22;20007;-72
2023/09/20 19:29:07;;;;;;;2.60;1.35;;;;;;;;;;10375975;22;20431;-71
2023/09/20 19:33:08;;;;;;;2.07;1.37;;;;;;;;;;10371802;22;20102;-71
2023/09/20 19:37:08;;;;;;;3.45;1.50;;;;;;;;;;10374399;22;20631;-71
2023/09/20 19:41:11;;;;;;;3.03;1.50;;;;;;;;;;10372222;22;20053;-71
2023/09/20 19:45:18;;;;;;;2.53;1.30;;;;;;;;;;10372491;22;20543;-71
2023/09/20 19:49:18;;;;;;;1.40;1.30;;;;;;;;;;10374724;22;20086;-71
2023/09/20 19:53:18;;;;;;;3.13;1.30;;;;;;;;;;10374965;22;20383;-71
2023/09/20 19:57:18;;;;;;;1.80;1.40;;;;;;;;;;10372811;22;20049;-71
2023/09/20 20:01:19;;;;;;;2.88;1.27;;;;;;;;;;10375459;22;20233;-71
2023/09/20 20:05:23;;;;;;;2.83;1.73;;;;;;;;;;10376717;22;20515;-71
2023/09/20 20:09:24;;;;;;;3.13;1.40;;;;;;;;;;10375073;22;20006;-71
2023/09/20 20:13:24;;;;;;;2.80;1.30;;;;;;;;;;10376733;22;20003;-71
2023/09/20 20:17:25;;;;;;;1.88;1.30;;;;;;;;;;10374769;22;20122;-71
2023/09/20 20:21:26;;;;;;;1.83;1.20;;;;;;;;;;10380673;22;20114;-72
2023/09/20 20:25:27;;;;;;;2.43;1.23;;;;;;;;;;10381962;22;20014;-71
2023/09/20 20:29:28;;;;;;;2.03;1.30;;;;;;;;;;10379016;22;20057;-70
2023/09/20 20:33:28;;;;;;;1.63;1.13;;;;;;;;;;10377937;22;20026;-71
2023/09/20 20:37:28;;;;;;;3.07;1.23;;;;;;;;;;10386448;22;20421;-72
2023/09/20 20:41:28;;;;;;;2.80;1.33;;;;;;;;;;10382308;22;20018;-72
2023/09/20 20:45:31;;;;;;;1.57;1.23;;;;;;;;;;10388209;22;20097;-71
2023/09/20 20:49:32;;;;;;;2.88;1.23;;;;;;;;;;10387668;22;19999;-71
2023/09/20 20:53:32;;;;;;;1.30;1.20;;;;;;;;;;10386827;22;20559;-71
2023/09/20 20:57:34;;;;;;;2.10;1.55;;;;;;;;;;10385279;22;19996;-71
2023/09/20 21:01:36;;;;;;;1.65;1.10;;;;;;;;;;10382510;22;20421;-71
2023/09/20 21:05:36;;;;;;;3.60;1.25;;;;;;;;;;10384898;22;20689;-71
2023/09/20 21:09:37;;;;;;;1.60;1.23;;;;;;;;;;10384665;22;20655;-71
2023/09/20 21:13:37;;;;;;;3.60;1.17;;;;;;;;;;10381402;22;20173;-71
2023/09/20 21:17:37;;;;;;;2.37;1.20;;;;;;;;;;10381898;22;20015;-71
2023/09/20 21:21:37;;;;;;;1.80;1.20;;;;;;;;;;10387888;22;20003;-71
2023/09/20 21:25:41;;;;;;;3.20;1.75;;;;;;;;;;10379897;22;20019;-72
2023/09/20 21:29:41;;;;;;;2.05;1.33;;;;;;;;;;10379670;22;20068;-71
2023/09/20 21:33:43;;;;;;;1.73;1.30;;;;;;;;;;10385469;22;20623;-71
2023/09/20 21:37:46;;;;;;;1.63;1.52;;;;;;;;;;10387183;22;20003;-71
2023/09/20 21:41:46;;;;;;;1.85;1.33;;;;;;;;;;10387061;22;20011;-71
2023/09/20 21:45:46;;;;;;;2.37;1.50;;;;;;;;;;10384062;22;20085;-71
2023/09/20 21:49:48;;;;;;;1.90;1.33;;;;;;;;;;10388757;22;19999;-71
2023/09/20 21:53:48;;;;;;;2.28;1.23;;;;;;;;;;10388657;22;20070;-71
2023/09/20 21:57:51;;;;;;;5.13;1.30;;;;;;;;;;10387199;22;20660;-71
2023/09/20 22:01:55;;;;;;;2.28;1.58;;;;;;;;;;10386148;22;20129;-71
2023/09/20 22:05:55;;;;;;;1.40;1.30;;;;;;;;;;10387650;22;20352;-71
2023/09/20 22:09:55;;;;;;;2.28;1.35;;;;;;;;;;10383724;22;20026;-71
2023/09/20 22:13:56;;;;;;;1.65;1.42;;;;;;;;;;10386971;22;20365;-71
2023/09/20 22:17:58;;;;;;;1.52;1.25;;;;;;;;;;10384995;22;20015;-71
2023/09/20 22:22:01;;;;;;;1.58;1.30;;;;;;;;;;10388182;22;20007;-71
2023/09/20 22:26:01;;;;;;;3.03;1.38;;;;;;;;;;10385621;22;20007;-71
2023/09/20 22:30:02;;;;;;;1.58;1.35;;;;;;;;;;10388677;22;19999;-71
2023/09/20 22:34:03;;;;;;;1.30;1.20;;;;;;;;;;10382357;22;20014;-71
2023/09/20 22:38:03;;;;;;;1.92;1.30;;;;;;;;;;10381528;22;20093;-73
2023/09/20 22:42:05;;;;;;;1.17;1.10;;;;;;;;;;10377417;22;20031;-71
2023/09/20 22:46:06;;;;;;;1.85;1.20;;;;;;;;;;10384113;22;20373;-71
2023/09/20 22:50:06;;;;;;;1.92;1.10;;;;;;;;;;10381958;22;20110;-71
2023/09/20 22:54:10;;;;;;;1.85;1.40;;;;;;;;;;10384830;22;20107;-71
2023/09/20 22:58:17;;;;;;;1.30;1.20;;;;;;;;;;10385687;22;19995;-71
2023/09/20 23:30:10;;;;;;;3.05;1.20;;;;;;;;;;10389470;22;20030;-72
2023/09/20 23:34:11;;;;;;;1.70;1.13;;;;;;;;;;10385240;22;19999;-70
2023/09/20 23:38:15;;;;;;;1.20;1.05;;;;;;;;;;10391281;22;20057;-71
2023/09/20 23:42:16;;;;;;;1.40;1.17;;;;;;;;;;10391983;22;19999;-71
2023/09/20 23:46:25;;;;;;;3.65;1.30;;;;;;;;;;10388306;22;20463;-71
2023/09/20 23:50:25;;;;;;;2.15;1.35;;;;;;;;;;10392683;22;20053;-71
2023/09/20 23:54:26;;;;;;;1.13;1.02;;;;;;;;;;10389828;22;20004;-71
2023/09/20 23:58:27;;;;;;;2.25;1.27;;;;;;;;;;10391764;22;20003;-71
